Time;durP1;ratioP1;P1;durP2;ratioP2;P2;SDS_P1;SDS_P2;PMS_P1;PMS_P2;Temp;Humidity;BMP_temperature;BMP_pressure;BME280_temperature;BME280_humidity;BME280_pressure;Samples;Min_cycle;Max_cycle;Signal;HPM_P1;HPM_P2
2021/03/07 00:01:05;;;;;;;2.63;1.97;;;;;;;-4.64;100.00;100902.64;1815997;79;21000;-76
2021/03/07 00:03:33;;;;;;;2.57;1.87;;;;;;;-4.65;100.00;100896.97;1815931;79;21364;-76
2021/03/07 00:06:01;;;;;;;2.63;1.83;;;;;;;-4.65;100.00;100898.30;1815848;79;20893;-77
2021/03/07 00:08:37;;;;;;;2.20;1.40;;;;;;;-4.66;100.00;100893.92;1815915;78;20932;-75
2021/03/07 00:11:07;;;;;;;2.37;1.43;;;;;;;-4.69;100.00;100897.54;1811357;79;20980;-76
2021/03/07 00:13:35;;;;;;;2.27;1.43;;;;;;;-4.70;100.00;100887.03;1816066;79;20999;-76
2021/03/07 00:16:03;;;;;;;1.87;1.30;;;;;;;-4.71;100.00;100887.94;1816009;79;21859;-76
2021/03/07 00:18:32;;;;;;;2.23;1.63;;;;;;;-4.73;100.00;100885.34;1815762;79;20992;-76
2021/03/07 00:21:00;;;;;;;4.47;2.50;;;;;;;-4.74;100.00;100890.23;1825792;77;21438;-76
2021/03/07 00:23:28;;;;;;;2.57;2.00;;;;;;;-4.74;100.00;100878.83;1831323;78;20975;-77
2021/03/07 00:25:57;;;;;;;3.10;2.33;;;;;;;-4.77;100.00;100877.99;1831392;78;20928;-77
2021/03/07 00:28:25;;;;;;;4.93;2.60;;;;;;;-4.77;100.00;100875.82;1836360;77;22825;-77
2021/03/07 00:30:53;;;;;;;4.57;2.50;;;;;;;-4.79;100.00;100877.19;1865077;75;21096;-76
2021/03/07 00:33:21;;;;;;;1.67;1.57;;;;;;;-4.79;100.00;100873.70;1863908;77;21143;-75
2021/03/07 00:35:50;;;;;;;1.33;1.17;;;;;;;-4.80;100.00;100874.16;1830700;77;21482;-75
2021/03/07 00:38:18;;;;;;;7.23;2.93;;;;;;;-4.81;100.00;100880.80;1830747;78;21553;-76
2021/03/07 00:40:46;;;;;;;2.80;2.53;;;;;;;-4.85;100.00;100880.05;1830637;78;21512;-76
2021/03/07 00:43:14;;;;;;;2.10;1.77;;;;;;;-4.85;100.00;100876.53;1830742;78;21011;-76
2021/03/07 00:45:42;;;;;;;2.60;1.63;;;;;;;-4.87;100.00;100873.09;1830605;78;20971;-76
2021/03/07 00:48:10;;;;;;;2.43;1.83;;;;;;;-4.88;100.00;100871.37;1830659;77;20903;-77
2021/03/07 00:50:39;;;;;;;3.97;1.93;;;;;;;-4.91;100.00;100866.20;1830672;78;20987;-76
2021/03/07 00:53:07;;;;;;;11.47;3.30;;;;;;;-4.94;100.00;100866.30;1830628;78;21250;-76
2021/03/07 00:55:36;;;;;;;2.63;2.37;;;;;;;-4.97;100.00;100860.68;1830414;78;21003;-75
2021/03/07 00:58:04;;;;;;;2.50;1.67;;;;;;;-4.97;100.00;100859.36;1830584;78;20979;-77
2021/03/07 01:00:32;;;;;;;1.53;1.07;;;;;;;-4.99;100.00;100854.60;1830617;78;21438;-77
2021/03/07 01:03:02;;;;;;;2.53;1.37;;;;;;;-5.03;100.00;100850.32;1830716;77;20881;-78
2021/03/07 01:05:30;;;;;;;1.63;1.53;;;;;;;-5.08;100.00;100846.55;1830889;78;21362;-77
2021/03/07 01:07:58;;;;;;;3.37;2.40;;;;;;;-5.10;100.00;100848.34;1803129;78;20944;-76
2021/03/07 01:10:37;;;;;;;4.23;1.83;;;;;;;-5.11;100.00;100849.27;1830704;78;21011;-76
2021/03/07 01:13:16;;;;;;;1.67;1.30;;;;;;;-5.13;100.00;100849.79;1852590;76;22670;-78
2021/03/07 01:15:44;;;;;;;6.22;3.02;;;;;;;-5.21;100.00;100847.38;1783450;80;20927;-77
2021/03/07 01:18:12;;;;;;;2.37;1.33;;;;;;;-5.23;100.00;100847.05;1855981;77;21817;-78
2021/03/07 01:20:42;;;;;;;2.87;1.87;;;;;;;-5.24;100.00;100844.88;1855808;77;21060;-75
2021/03/07 01:23:11;;;;;;;1.97;1.77;;;;;;;-5.24;100.00;100846.19;1855724;77;21348;-77
2021/03/07 01:25:39;;;;;;;3.00;1.90;;;;;;;-5.24;100.00;100847.94;1855744;77;20925;-76
2021/03/07 01:28:07;;;;;;;7.13;3.20;;;;;;;-5.29;100.00;100845.48;1855055;77;20965;-77
2021/03/07 01:30:38;;;;;;;7.33;2.17;;;;;;;-5.29;100.00;100844.16;1828724;78;21577;-78
2021/03/07 01:33:07;;;;;;;3.83;1.70;;;;;;;-5.30;100.00;100846.38;1824001;78;20973;-78
2021/03/07 01:35:35;;;;;;;4.57;1.90;;;;;;;-5.32;100.00;100843.40;1822251;78;21445;-76
2021/03/07 01:38:03;;;;;;;2.53;1.33;;;;;;;-5.32;100.00;100840.30;1783348;80;21036;-77
2021/03/07 01:40:39;;;;;;;2.27;1.70;;;;;;;-5.34;100.00;100842.12;1822413;78;20904;-78
2021/03/07 01:43:07;;;;;;;3.40;2.17;;;;;;;-5.34;100.00;100844.77;1821835;78;23295;-77
2021/03/07 01:45:37;;;;;;;3.43;2.37;;;;;;;-5.36;100.00;100842.17;1783289;80;21120;-77
2021/03/07 01:48:08;;;;;;;7.40;3.23;;;;;;;-5.35;100.00;100839.07;1822366;78;21007;-76
2021/03/07 01:50:40;;;;;;;6.92;4.47;;;;;;;-5.34;100.00;100835.07;1783410;80;20995;-77
2021/03/07 01:53:09;;;;;;;9.00;3.37;;;;;;;-5.32;100.00;100834.17;1822369;78;21004;-76
2021/03/07 01:55:38;;;;;;;6.77;3.17;;;;;;;-5.30;100.00;100842.42;1822213;78;22310;-77
2021/03/07 01:58:27;;;;;;;4.13;2.80;;;;;;;-5.29;100.00;100842.84;1783182;80;21010;-78
2021/03/07 02:00:56;;;;;;;3.40;1.53;;;;;;;-5.29;100.00;100853.82;1822498;78;20964;-76
2021/03/07 02:03:24;;;;;;;3.10;2.80;;;;;;;-5.35;100.00;100845.23;1783403;80;20991;-77
2021/03/07 02:05:52;;;;;;;10.40;2.53;;;;;;;-5.37;100.00;100843.53;1822457;78;20924;-76
2021/03/07 02:08:21;;;;;;;4.03;2.17;;;;;;;-5.42;100.00;100841.07;1783471;80;21641;-76
2021/03/07 02:10:59;;;;;;;5.30;2.50;;;;;;;-5.44;100.00;100844.19;1822225;78;21067;-79
2021/03/07 02:13:37;;;;;;;2.90;2.17;;;;;;;-5.44;100.00;100844.19;1845982;76;22856;-76
2021/03/07 02:16:21;;;;;;;3.27;2.20;;;;;;;-5.49;100.00;100845.25;1816032;77;20912;-76
2021/03/07 02:18:51;;;;;;;3.70;1.90;;;;;;;-5.50;100.00;100848.81;1811196;79;21200;-76
2021/03/07 02:21:26;;;;;;;1.53;1.43;;;;;;;-5.50;100.00;100844.86;1816051;79;20949;-77
2021/03/07 02:24:09;;;;;;;4.63;1.10;;;;;;;-5.49;100.00;100839.98;1816038;79;20945;-77
2021/03/07 02:26:44;;;;;;;2.22;1.25;;;;;;;-5.51;100.00;100841.34;1729485;81;21072;-76
2021/03/07 02:29:12;;;;;;;2.93;1.83;;;;;;;-5.50;100.00;100842.23;1751723;80;20961;-76
2021/03/07 02:31:50;;;;;;;1.87;1.33;;;;;;;-5.49;100.00;100846.56;1777669;80;21469;-78
2021/03/07 02:34:35;;;;;;;3.90;2.20;;;;;;;-5.49;100.00;100847.88;1753994;80;21079;-78
2021/03/07 02:37:12;;;;;;;2.13;1.43;;;;;;;-5.46;100.00;100859.19;1807534;77;22802;-77
2021/03/07 02:39:41;;;;;;;2.70;1.97;;;;;;;-5.51;100.00;100854.98;1770035;80;21555;-76
2021/03/07 02:42:14;;;;;;;2.33;1.93;;;;;;;-5.55;100.00;100856.86;1747912;81;21747;-76
2021/03/07 02:44:55;;;;;;;4.70;2.07;;;;;;;-5.58;100.00;100855.20;1769102;81;20998;-78
2021/03/07 02:47:23;;;;;;;7.60;3.80;;;;;;;-5.58;100.00;100851.67;1769112;80;21492;-77
2021/03/07 02:49:52;;;;;;;5.80;2.40;;;;;;;-5.60;100.00;100850.86;1747502;81;21001;-77
2021/03/07 02:52:20;;;;;;;3.67;2.50;;;;;;;-5.63;100.00;100843.05;1769219;81;21006;-77
2021/03/07 02:54:49;;;;;;;2.90;2.17;;;;;;;-5.67;100.00;100844.92;1747651;81;21661;-77
2021/03/07 02:57:19;;;;;;;2.10;1.37;;;;;;;-5.69;100.00;100849.84;1768957;81;21046;-78
2021/03/07 02:59:47;;;;;;;3.40;2.50;;;;;;;-5.72;100.00;100846.40;1768996;81;20942;-76
2021/03/07 03:02:15;;;;;;;2.30;1.17;;;;;;;-5.73;100.00;100849.08;1769025;81;21015;-76
2021/03/07 03:04:44;;;;;;;3.60;2.20;;;;;;;-5.78;100.00;100853.16;1769002;81;21061;-76
2021/03/07 03:07:12;;;;;;;2.37;2.17;;;;;;;-5.78;100.00;100856.26;1747733;81;21539;-76
2021/03/07 03:09:40;;;;;;;1.97;1.17;;;;;;;-5.80;100.00;100849.72;1747709;81;21460;-77
2021/03/07 03:12:09;;;;;;;8.30;1.60;;;;;;;-5.82;100.00;100852.86;1769071;81;21662;-76
2021/03/07 03:14:37;;;;;;;0.83;0.83;;;;;;;-5.84;100.00;100848.09;1768953;81;20923;-76
2021/03/07 03:17:05;;;;;;;4.80;2.63;;;;;;;-5.85;100.00;100848.98;1769110;81;20986;-77
2021/03/07 03:19:34;;;;;;;2.90;1.93;;;;;;;-5.87;100.00;100844.23;1768922;81;21191;-77
2021/03/07 03:22:02;;;;;;;2.10;1.90;;;;;;;-5.88;100.00;100839.00;1769127;80;21045;-77
2021/03/07 03:24:33;;;;;;;3.73;1.63;;;;;;;-5.91;100.00;100834.70;1769175;80;21546;-76
2021/03/07 03:27:02;;;;;;;4.23;1.97;;;;;;;-5.95;100.00;100835.25;1769123;81;21006;-78
2021/03/07 03:29:30;;;;;;;1.47;1.33;;;;;;;-5.95;100.00;100829.98;1752549;80;20954;-76
2021/03/07 03:31:59;;;;;;;2.77;1.67;;;;;;;-5.97;100.00;100823.91;1776778;78;21197;-76
2021/03/07 03:34:28;;;;;;;1.33;1.23;;;;;;;-5.98;100.00;100836.69;1716180;83;20969;-77
2021/03/07 03:36:56;;;;;;;2.97;1.83;;;;;;;-5.98;100.00;100830.57;1703479;84;21013;-77
2021/03/07 03:39:25;;;;;;;2.53;1.10;;;;;;;-6.02;100.00;100833.75;1668857;84;21021;-76
2021/03/07 03:41:59;;;;;;;2.53;1.63;;;;;;;-6.04;100.00;100827.64;1698855;84;21065;-76
2021/03/07 03:44:33;;;;;;;1.20;1.20;;;;;;;-6.07;100.00;100828.19;1698780;84;22367;-76
2021/03/07 03:47:02;;;;;;;1.53;1.43;;;;;;;-6.07;100.00;100820.29;1698637;84;21012;-77
2021/03/07 03:49:37;;;;;;;2.30;1.70;;;;;;;-6.08;100.00;100818.58;1698472;84;21573;-77
2021/03/07 03:52:06;;;;;;;1.93;1.67;;;;;;;-6.09;100.00;100815.53;1698296;84;21009;-77
2021/03/07 03:54:39;;;;;;;4.13;1.27;;;;;;;-6.11;100.00;100823.47;1698338;84;21068;-77
2021/03/07 03:57:07;;;;;;;1.80;1.55;;;;;;;-6.12;100.00;100817.81;1666501;84;21825;-77
2021/03/07 03:59:37;;;;;;;1.77;1.67;;;;;;;-6.10;100.00;100825.20;1697878;84;21590;-76
2021/03/07 04:02:05;;;;;;;1.50;1.30;;;;;;;-6.09;100.00;100811.58;1698030;84;21021;-77
2021/03/07 04:04:34;;;;;;;2.03;1.87;;;;;;;-6.08;100.00;100810.22;1697924;84;21120;-77
2021/03/07 04:07:02;;;;;;;1.20;1.20;;;;;;;-6.09;100.00;100809.83;1697928;84;21491;-77
2021/03/07 04:09:30;;;;;;;1.67;1.13;;;;;;;-6.10;100.00;100804.14;1697958;84;21378;-77
2021/03/07 04:11:58;;;;;;;4.87;2.03;;;;;;;-6.13;100.00;100809.03;1668668;84;21053;-78
2021/03/07 04:14:25;;;;;;;1.97;1.47;;;;;;;-6.13;100.00;100806.86;1698153;84;21029;-77
2021/03/07 04:16:54;;;;;;;3.27;2.13;;;;;;;-6.14;100.00;100813.05;1698264;84;21476;-77
2021/03/07 04:19:22;;;;;;;4.10;1.87;;;;;;;-6.17;100.00;100813.98;1698270;84;21029;-78
2021/03/07 04:21:50;;;;;;;2.40;1.87;;;;;;;-6.16;100.00;100805.20;1698335;84;21204;-76
2021/03/07 04:24:18;;;;;;;4.43;2.17;;;;;;;-6.16;100.00;100805.63;1698171;84;21670;-78
2021/03/07 04:26:46;;;;;;;4.07;2.00;;;;;;;-6.19;100.00;100799.16;1698230;84;20997;-78
2021/03/07 04:29:14;;;;;;;3.90;2.03;;;;;;;-6.21;100.00;100799.20;1712483;83;21570;-77
2021/03/07 04:31:43;;;;;;;1.17;1.17;;;;;;;-6.22;100.00;100804.05;1727392;83;21846;-78
2021/03/07 04:34:11;;;;;;;3.17;2.00;;;;;;;-6.23;100.00;100791.81;1716998;83;21292;-77
2021/03/07 04:36:39;;;;;;;4.90;3.13;;;;;;;-6.24;100.00;100795.34;1693751;84;21053;-76
2021/03/07 04:39:07;;;;;;;5.80;2.13;;;;;;;-6.26;100.00;100793.67;1700715;83;21068;-77
2021/03/07 04:41:35;;;;;;;2.97;2.07;;;;;;;-6.28;100.00;100793.72;1722929;81;21129;-78
2021/03/07 04:44:04;;;;;;;3.03;2.43;;;;;;;-6.28;100.00;100789.77;1722918;83;21076;-77
2021/03/07 04:46:32;;;;;;;2.87;2.03;;;;;;;-6.28;100.00;100792.40;1706793;83;22536;-77
2021/03/07 04:49:00;;;;;;;7.67;2.93;;;;;;;-6.31;100.00;100791.16;1704733;84;21026;-77
2021/03/07 04:51:29;;;;;;;2.93;2.10;;;;;;;-6.32;100.00;100790.75;1704929;83;20938;-77
2021/03/07 04:53:56;;;;;;;4.33;1.87;;;;;;;-6.32;100.00;100795.58;1704762;84;21013;-76
2021/03/07 04:56:27;;;;;;;6.50;2.37;;;;;;;-6.35;100.00;100789.55;1704999;84;21022;-77
2021/03/07 04:58:56;;;;;;;0.93;0.93;;;;;;;-6.36;100.00;100789.97;1704752;83;21392;-77
2021/03/07 05:01:24;;;;;;;2.80;1.63;;;;;;;-6.36;100.00;100785.17;1704650;83;20966;-76
2021/03/07 05:03:52;;;;;;;3.70;2.53;;;;;;;-6.36;100.00;100791.75;1704732;83;21176;-77
2021/03/07 05:06:24;;;;;;;2.13;1.73;;;;;;;-6.32;100.00;100794.27;1704541;83;21077;-77
2021/03/07 05:08:53;;;;;;;2.10;1.77;;;;;;;-6.27;100.00;100790.63;1704844;84;21057;-77
2021/03/07 05:11:21;;;;;;;3.47;2.63;;;;;;;-6.22;100.00;100789.56;1704534;83;21376;-77
2021/03/07 05:13:50;;;;;;;8.27;3.20;;;;;;;-6.16;100.00;100781.50;1704488;83;21486;-76
2021/03/07 05:16:18;;;;;;;2.27;1.60;;;;;;;-6.13;100.00;100796.33;1704773;84;21002;-77
2021/03/07 05:18:46;;;;;;;2.63;2.43;;;;;;;-6.10;100.00;100793.61;1704661;84;21005;-78
2021/03/07 05:21:14;;;;;;;4.30;2.47;;;;;;;-6.05;100.00;100789.07;1704764;83;21512;-77
2021/03/07 05:23:42;;;;;;;5.50;2.23;;;;;;;-5.97;100.00;100790.14;1704714;83;21802;-75
2021/03/07 05:26:10;;;;;;;4.53;2.53;;;;;;;-5.87;100.00;100780.16;1704659;84;20975;-78
2021/03/07 05:28:38;;;;;;;2.30;1.83;;;;;;;-5.78;100.00;100782.49;1717754;81;20999;-77
2021/03/07 05:31:06;;;;;;;2.57;2.03;;;;;;;-5.72;100.00;100781.85;1760254;81;20983;-75
2021/03/07 05:33:34;;;;;;;1.93;1.83;;;;;;;-5.61;100.00;100780.19;1760459;81;21560;-76
2021/03/07 05:36:03;;;;;;;3.43;2.67;;;;;;;-5.49;100.00;100778.89;1761862;81;21171;-77
2021/03/07 05:38:31;;;;;;;1.80;1.70;;;;;;;-5.41;100.00;100785.25;1773765;81;21361;-75
2021/03/07 05:40:59;;;;;;;2.77;1.97;;;;;;;-5.32;100.00;100778.34;1773944;81;21002;-77
2021/03/07 05:43:27;;;;;;;1.20;1.10;;;;;;;-5.23;100.00;100783.77;1773174;80;20978;-76
2021/03/07 05:45:55;;;;;;;2.67;1.80;;;;;;;-5.10;100.00;100778.92;1768895;81;21014;-75
2021/03/07 05:48:29;;;;;;;1.50;1.40;;;;;;;-5.02;100.00;100786.97;1769286;80;21405;-76
2021/03/07 05:50:57;;;;;;;;;;;;;;;-4.93;100.00;100786.25;1771579;81;20942;-77
2021/03/07 05:53:25;;;;;;;3.10;1.93;;;;;;;-4.83;100.00;100786.34;1768919;81;20152;-77
2021/03/07 05:55:53;;;;;;;4.57;2.07;;;;;;;-4.74;100.00;100792.60;1769115;81;21018;-77
2021/03/07 05:58:22;;;;;;;3.17;1.80;;;;;;;-4.64;100.00;100780.80;1769162;81;21045;-76
2021/03/07 06:00:50;;;;;;;3.90;2.30;;;;;;;-4.56;100.00;100790.22;1768794;81;21796;-76
2021/03/07 06:03:21;;;;;;;4.13;2.20;;;;;;;-4.54;100.00;100790.55;1769765;80;20970;-75
2021/03/07 06:05:51;;;;;;;2.07;1.70;;;;;;;-4.52;100.00;100782.10;1769190;81;21432;-76
2021/03/07 06:08:20;;;;;;;3.37;2.40;;;;;;;-4.42;100.00;100775.57;1768851;81;21536;-77
2021/03/07 06:10:49;;;;;;;2.70;2.50;;;;;;;-4.34;100.00;100777.06;1768612;80;21038;-77
2021/03/07 06:13:17;;;;;;;1.87;1.60;;;;;;;-4.24;100.00;100775.33;1768735;81;21204;-76
2021/03/07 06:15:49;;;;;;;2.50;1.77;;;;;;;-4.18;100.00;100766.77;1765717;81;21085;-76
2021/03/07 06:18:20;;;;;;;2.00;1.80;;;;;;;-4.17;100.00;100762.75;1768600;80;20939;-76
2021/03/07 06:20:51;;;;;;;3.70;2.30;;;;;;;-4.10;100.00;100765.55;1706589;84;20966;-76
2021/03/07 06:23:34;;;;;;;2.53;1.93;;;;;;;-4.06;100.00;100763.66;1742450;82;21514;-76
2021/03/07 06:26:10;;;;;;;2.65;2.27;;;;;;;-3.99;100.00;100758.99;1742527;82;21205;-76
2021/03/07 06:28:39;;;;;;;2.57;2.10;;;;;;;-3.88;100.00;100760.30;1735454;82;21037;-76
2021/03/07 06:31:28;;;;;;;2.07;1.80;;;;;;;-3.75;100.00;100755.37;1715521;83;21044;-75
2021/03/07 06:33:57;;;;;;;3.53;1.80;;;;;;;-3.59;100.00;100754.72;1708356;82;21024;-76
2021/03/07 06:36:26;;;;;;;2.87;2.50;;;;;;;-3.44;100.00;100762.02;1686865;84;21197;-76
2021/03/07 06:39:01;;;;;;;2.33;1.73;;;;;;;-3.32;100.00;100759.34;1684395;85;21589;-77
2021/03/07 06:41:40;;;;;;;2.67;2.43;;;;;;;-3.15;100.00;100758.60;1812079;77;23929;-78
2021/03/07 06:44:14;;;;;;;4.93;3.67;;;;;;;-3.09;100.00;100750.42;1784943;80;20938;-77
2021/03/07 06:46:47;;;;;;;5.07;2.57;;;;;;;-3.11;100.00;100758.42;1785165;80;21272;-75
2021/03/07 06:49:26;;;;;;;3.40;2.15;;;;;;;-3.09;100.00;100753.91;1819466;79;20985;-76
2021/03/07 06:52:13;;;;;;;3.03;2.27;;;;;;;-3.06;100.00;100753.79;1765107;81;21060;-75
2021/03/07 06:54:45;;;;;;;5.83;3.27;;;;;;;-2.99;100.00;100742.92;1764558;81;21048;-76
2021/03/07 06:57:13;;;;;;;3.93;2.60;;;;;;;-2.85;100.00;100740.55;1764440;81;21025;-77
2021/03/07 06:59:50;;;;;;;7.15;3.62;;;;;;;-2.72;100.00;100738.20;1876882;76;27755;-77
2021/03/07 07:02:17;;;;;;;4.80;2.40;;;;;;;-2.61;100.00;100733.27;1863927;77;20871;-76
2021/03/07 07:04:46;;;;;;;5.60;3.40;;;;;;;-2.42;100.00;100735.95;1863183;77;21355;-75
2021/03/07 07:07:17;;;;;;;6.23;3.63;;;;;;;-2.22;100.00;100727.53;1863453;77;20978;-75
2021/03/07 07:09:47;;;;;;;8.07;3.33;;;;;;;-2.08;100.00;100726.88;1863700;77;21002;-76
2021/03/07 07:12:23;;;;;;;7.57;3.07;;;;;;;-1.93;100.00;100734.07;1863538;77;20958;-75
2021/03/07 07:15:04;;;;;;;4.50;3.10;;;;;;;-1.78;100.00;100725.86;1863542;77;21030;-75
2021/03/07 07:17:32;;;;;;;4.53;3.33;;;;;;;-1.83;100.00;100726.06;1862055;77;21196;-75
2021/03/07 07:20:01;;;;;;;3.83;2.87;;;;;;;-1.81;100.00;100735.28;1863355;77;20903;-76
2021/03/07 07:22:29;;;;;;;4.50;2.90;;;;;;;-1.65;100.00;100726.10;1863514;77;20916;-77
2021/03/07 07:24:58;;;;;;;6.23;3.43;;;;;;;-1.59;100.00;100714.73;1863326;77;21456;-76
2021/03/07 07:27:26;;;;;;;6.07;2.87;;;;;;;-1.50;100.00;100723.17;1863483;77;21285;-75
2021/03/07 07:29:54;;;;;;;7.23;2.80;;;;;;;-1.41;100.00;100712.94;1863667;77;21192;-76
2021/03/07 07:32:32;;;;;;;5.07;3.07;;;;;;;-1.26;100.00;100707.30;1863213;77;21014;-76
2021/03/07 07:35:07;;;;;;;4.27;2.83;;;;;;;-1.18;100.00;100702.94;1846191;76;21459;-75
2021/03/07 07:38:01;;;;;;;5.50;2.97;;;;;;;-1.18;100.00;100707.77;1809764;79;21017;-75
2021/03/07 07:40:42;;;;;;;4.73;2.83;;;;;;;-1.22;100.00;100703.57;1825672;78;20941;-76
2021/03/07 07:43:10;;;;;;;3.83;2.57;;;;;;;-1.13;100.00;100700.03;1825644;78;21633;-76
2021/03/07 07:45:39;;;;;;;4.40;2.90;;;;;;;-1.06;100.00;100696.99;1809752;79;21146;-76
2021/03/07 07:48:09;;;;;;;2.80;2.60;;;;;;;-1.02;100.00;100687.92;1825617;78;20934;-75
2021/03/07 07:50:39;;;;;;;4.57;2.87;;;;;;;-1.01;100.00;100692.30;1825945;78;20874;-75
2021/03/07 07:53:15;;;;;;;3.83;3.17;;;;;;;-0.90;100.00;100678.91;1809724;79;20903;-76
2021/03/07 07:55:57;;;;;;;2.30;2.10;;;;;;;-0.80;100.00;100690.30;1823902;78;22044;-75
2021/03/07 07:58:41;;;;;;;7.80;3.47;;;;;;;-0.75;100.00;100680.74;1807191;79;21099;-75
2021/03/07 08:01:12;;;;;;;;;;;;;;;-0.74;100.00;100680.27;1825726;78;21540;-75
2021/03/07 08:03:42;;;;;;;4.93;3.13;;;;;;;-0.67;100.00;100683.00;1822851;78;20132;-75
2021/03/07 08:06:35;;;;;;;4.80;3.10;;;;;;;-0.54;100.00;100681.86;1807300;79;20942;-75
2021/03/07 08:09:33;;;;;;;6.33;3.77;;;;;;;-0.49;100.00;100660.73;1822786;78;21866;-74
2021/03/07 08:12:40;;;;;;;7.10;3.30;;;;;;;-0.43;100.00;100663.03;1806552;79;21621;-74
2021/03/07 08:15:33;;;;;;;5.33;3.37;;;;;;;-0.40;100.00;100664.20;1822115;78;20930;-76
2021/03/07 08:18:04;;;;;;;;;;;;;;;-0.41;100.00;100653.20;1809156;79;21057;-75
2021/03/07 08:20:44;;;;;;;8.43;3.50;;;;;;;-0.50;100.00;100639.08;1822441;78;20148;-77
2021/03/07 08:23:14;;;;;;;4.80;2.70;;;;;;;-0.49;100.00;100637.30;1806635;79;21117;-75
2021/03/07 08:25:53;;;;;;;4.17;2.70;;;;;;;-0.49;100.00;100635.97;1822316;78;21049;-73
2021/03/07 08:28:33;;;;;;;5.60;2.93;;;;;;;-0.37;100.00;100623.78;1697058;84;21581;-76
2021/03/07 08:31:22;;;;;;;6.17;3.00;;;;;;;-0.15;100.00;100623.42;1705851;84;21012;-75
2021/03/07 08:33:50;;;;;;;6.37;3.10;;;;;;;-0.04;100.00;100617.85;1699626;84;20993;-75
2021/03/07 08:36:24;;;;;;;5.00;2.83;;;;;;;0.02;100.00;100614.45;1669555;86;21051;-74
2021/03/07 08:39:14;;;;;;;3.57;2.90;;;;;;;0.05;100.00;100604.98;1890261;76;26332;-75
2021/03/07 08:41:50;;;;;;;3.27;2.37;;;;;;;0.12;100.00;100603.67;1861345;77;20962;-75
2021/03/07 08:44:18;;;;;;;3.90;2.57;;;;;;;0.22;100.00;100597.34;1861001;77;21192;-75
2021/03/07 08:46:47;;;;;;;6.13;3.33;;;;;;;0.22;100.00;100593.36;1861210;77;21042;-76
2021/03/07 08:49:19;;;;;;;4.60;3.13;;;;;;;0.28;100.00;100583.67;1861109;77;20998;-76
2021/03/07 08:51:50;;;;;;;4.28;2.60;;;;;;;0.29;100.00;100586.24;1861372;77;21345;-75
2021/03/07 08:54:21;;;;;;;4.07;2.43;;;;;;;0.24;100.00;100575.02;1861263;77;21456;-75
2021/03/07 08:56:50;;;;;;;2.67;2.07;;;;;;;0.30;100.00;100587.97;1861074;77;21366;-75
2021/03/07 08:59:18;;;;;;;3.07;2.33;;;;;;;0.37;100.00;100587.10;1861191;77;21236;-74
2021/03/07 09:01:50;;;;;;;1.60;1.40;;;;;;;0.42;100.00;100581.03;1861247;77;20986;-76
2021/03/07 09:04:19;;;;;;;4.15;1.80;;;;;;;0.54;100.00;100586.94;1861450;77;20919;-75
2021/03/07 09:06:47;;;;;;;2.30;1.70;;;;;;;0.63;100.00;100588.19;1861200;77;21073;-75
2021/03/07 09:09:21;;;;;;;2.07;1.73;;;;;;;0.83;100.00;100573.64;1861035;77;21478;-75
2021/03/07 09:12:07;;;;;;;3.03;2.40;;;;;;;0.91;100.00;100586.00;1861233;77;21014;-74
2021/03/07 09:14:40;;;;;;;3.67;2.40;;;;;;;0.81;100.00;100584.86;1792830;80;21533;-74
2021/03/07 09:17:22;;;;;;;3.87;2.47;;;;;;;0.81;100.00;100581.35;1792914;80;20953;-76
2021/03/07 09:19:50;;;;;;;1.75;1.65;;;;;;;0.74;100.00;100575.55;1791576;80;21076;-76
2021/03/07 09:22:27;;;;;;;2.20;1.93;;;;;;;0.75;100.00;100572.80;1781687;80;21196;-76
2021/03/07 09:25:15;;;;;;;3.47;1.93;;;;;;;0.70;100.00;100564.23;1782147;80;21005;-74
2021/03/07 09:27:43;;;;;;;3.63;2.40;;;;;;;0.73;100.00;100568.53;1781607;80;21645;-76
2021/03/07 09:30:18;;;;;;;3.47;2.10;;;;;;;0.83;100.00;100576.30;1757463;80;20952;-74
2021/03/07 09:32:53;;;;;;;2.37;1.90;;;;;;;0.95;100.00;100564.88;1852573;76;26761;-75
2021/03/07 09:35:31;;;;;;;3.67;1.77;;;;;;;1.04;100.00;100576.77;1790914;79;20966;-76
2021/03/07 09:38:03;;;;;;;3.80;2.00;;;;;;;1.11;100.00;100566.09;1798936;79;21434;-75
2021/03/07 09:40:38;;;;;;;3.10;2.15;;;;;;;1.03;100.00;100582.22;1831955;78;20937;-74
2021/03/07 09:43:10;;;;;;;2.83;1.50;;;;;;;1.06;100.00;100580.21;1741374;81;21808;-75
2021/03/07 09:45:50;;;;;;;3.57;2.17;;;;;;;1.18;100.00;100561.24;1844424;75;26992;-81
2021/03/07 09:48:28;;;;;;;4.00;2.83;;;;;;;1.18;100.00;100565.23;1817508;78;20941;-79
2021/03/07 09:50:57;;;;;;;4.23;2.00;;;;;;;1.22;100.00;100570.77;1814371;79;21211;-79
2021/03/07 09:53:26;;;;;;;3.20;1.87;;;;;;;1.41;100.00;100558.91;1817332;79;20984;-80
2021/03/07 09:55:54;;;;;;;3.43;2.10;;;;;;;1.46;100.00;100553.66;1817111;79;21027;-79
2021/03/07 09:58:22;;;;;;;4.40;2.20;;;;;;;1.37;100.00;100550.27;1816528;79;21399;-77
2021/03/07 10:00:51;;;;;;;1.90;1.60;;;;;;;1.38;100.00;100548.45;1816867;79;20968;-76
2021/03/07 10:03:24;;;;;;;4.20;2.40;;;;;;;1.29;100.00;100540.11;1817477;79;22499;-77
2021/03/07 10:06:27;;;;;;;3.05;2.15;;;;;;;1.40;100.00;100530.55;1730458;82;20996;-79
2021/03/07 10:09:09;;;;;;;2.65;2.17;;;;;;;1.42;100.00;100533.98;1642365;87;21045;-85
2021/03/07 10:11:38;;;;;;;5.57;2.50;;;;;;;1.48;100.00;100517.09;1642209;87;21021;-82
2021/03/07 10:14:08;;;;;;;3.30;2.27;;;;;;;1.55;100.00;100505.55;1641311;87;21065;-81
2021/03/07 10:16:37;;;;;;;5.10;2.13;;;;;;;1.61;100.00;100502.50;1642331;87;21215;-79
2021/03/07 10:19:13;;;;;;;4.83;2.30;;;;;;;1.63;100.00;100495.25;1642004;87;21005;-82
2021/03/07 10:21:42;;;;;;;5.90;2.60;;;;;;;1.70;100.00;100485.88;1641879;87;21164;-84
2021/03/07 10:24:17;;;;;;;2.60;2.03;;;;;;;1.80;100.00;100486.09;1642370;87;21057;-84
2021/03/07 10:26:50;;;;;;;2.20;1.93;;;;;;;1.82;100.00;100487.33;1619960;87;21057;-76
2021/03/07 10:29:27;;;;;;;2.93;1.83;;;;;;;1.79;100.00;100480.86;1640005;87;21575;-75
2021/03/07 10:32:18;;;;;;;5.23;2.80;;;;;;;1.68;100.00;100484.26;1639794;86;21070;-76
2021/03/07 10:34:53;;;;;;;3.70;2.60;;;;;;;1.58;100.00;100464.53;1675337;84;21163;-74
2021/03/07 10:37:42;;;;;;;2.60;2.20;;;;;;;1.48;100.00;100461.61;1671217;85;21633;-76
2021/03/07 10:40:12;;;;;;;4.23;2.50;;;;;;;1.43;100.00;100463.23;1640705;85;21058;-76
2021/03/07 10:42:42;;;;;;;6.47;3.00;;;;;;;1.48;100.00;100445.62;1661375;86;21658;-76
2021/03/07 10:45:23;;;;;;;4.47;2.23;;;;;;;1.51;100.00;100444.09;1640329;87;21111;-74
2021/03/07 10:48:03;;;;;;;4.27;2.60;;;;;;;1.48;100.00;100433.14;1663637;85;21049;-75
2021/03/07 10:50:33;;;;;;;3.10;2.13;;;;;;;1.47;100.00;100427.91;1683829;85;21176;-76
2021/03/07 10:53:01;;;;;;;5.13;2.27;;;;;;;1.50;100.00;100413.90;1684058;85;21036;-76
2021/03/07 10:55:29;;;;;;;2.83;1.73;;;;;;;1.45;100.00;100417.38;1638649;87;21455;-77
2021/03/07 10:57:57;;;;;;;2.43;2.00;;;;;;;1.39;100.00;100424.93;1690504;84;21805;-75
2021/03/07 11:00:25;;;;;;;3.50;2.33;;;;;;;1.33;100.00;100413.72;1690473;84;21801;-75
2021/03/07 11:02:54;;;;;;;3.57;2.40;;;;;;;1.29;100.00;100409.56;1691674;84;20996;-75
2021/03/07 11:05:23;;;;;;;4.00;2.43;;;;;;;1.30;100.00;100404.59;1691005;83;21156;-75
2021/03/07 11:07:51;;;;;;;4.47;2.30;;;;;;;1.35;100.00;100406.08;1687713;84;21372;-76
2021/03/07 11:10:21;;;;;;;8.20;2.90;;;;;;;1.40;100.00;100402.63;1714860;83;21025;-76
2021/03/07 11:12:50;;;;;;;4.03;2.97;;;;;;;1.42;100.00;100386.94;1721168;82;21102;-76
2021/03/07 11:15:18;;;;;;;2.80;2.30;;;;;;;1.48;100.00;100375.84;1721114;83;21028;-76
2021/03/07 11:17:46;;;;;;;2.60;1.83;;;;;;;1.53;100.00;100368.87;1721204;83;20921;-75
2021/03/07 11:20:16;;;;;;;4.30;2.30;;;;;;;1.51;100.00;100368.14;1721073;83;21349;-76
2021/03/07 11:22:44;;;;;;;2.00;1.80;;;;;;;1.50;100.00;100370.41;1721159;82;21624;-76
2021/03/07 11:25:12;;;;;;;3.57;2.20;;;;;;;1.44;100.00;100349.04;1721120;83;20985;-75
2021/03/07 11:27:40;;;;;;;3.13;2.27;;;;;;;1.31;100.00;100365.02;1721032;83;21016;-76
2021/03/07 11:30:09;;;;;;;3.00;2.07;;;;;;;1.42;100.00;100374.09;1711670;83;20997;-76
2021/03/07 11:32:37;;;;;;;5.20;2.43;;;;;;;1.54;100.00;100350.61;1681695;85;21213;-76
2021/03/07 11:35:08;;;;;;;3.10;2.00;;;;;;;1.62;100.00;100352.73;1738916;81;21156;-77
2021/03/07 11:37:36;;;;;;;5.30;2.90;;;;;;;1.67;100.00;100339.94;1745809;82;21096;-75
2021/03/07 11:40:06;;;;;;;2.93;2.00;;;;;;;1.72;100.00;100343.14;1745914;82;21452;-77